createdAt,value
2022-07-29T00:02:16.434Z,13.20
2022-07-29T00:04:43.192Z,13.20
2022-07-29T00:07:09.975Z,13.30
2022-07-29T00:09:41.916Z,13.30
2022-07-29T00:12:25.715Z,13.30
2022-07-29T00:14:54.699Z,13.20
2022-07-29T00:17:21.582Z,13.10
2022-07-29T00:19:48.341Z,13.20
2022-07-29T00:22:15.075Z,13.20
2022-07-29T00:24:41.946Z,13.10
2022-07-29T00:27:08.695Z,13.00
2022-07-29T00:29:35.666Z,12.90
2022-07-29T00:32:03.315Z,12.80
2022-07-29T00:34:50.211Z,12.80
2022-07-29T00:37:16.944Z,12.70
2022-07-29T00:39:44.422Z,12.70
2022-07-29T00:42:11.602Z,12.70
2022-07-29T00:44:40.127Z,12.70
2022-07-29T00:47:07.271Z,12.70
2022-07-29T00:49:35.069Z,12.70
2022-07-29T00:52:03.734Z,12.70
2022-07-29T00:54:31.130Z,12.70
2022-07-29T00:56:59.856Z,12.70
2022-07-29T00:59:34.852Z,12.70
2022-07-29T01:02:03.030Z,12.70
2022-07-29T01:04:30.691Z,12.70
2022-07-29T01:06:57.543Z,12.60
2022-07-29T01:09:42.775Z,12.60
2022-07-29T01:12:13.917Z,12.60
2022-07-29T01:14:41.478Z,12.50
2022-07-29T01:17:14.964Z,12.50
2022-07-29T01:19:44.698Z,12.50
2022-07-29T01:22:43.510Z,12.50
2022-07-29T01:25:52.422Z,12.50
2022-07-29T01:29:05.367Z,12.50
2022-07-29T01:31:59.385Z,12.50
2022-07-29T01:34:49.606Z,12.50
2022-07-29T01:37:29.267Z,12.50
2022-07-29T01:39:59.575Z,12.50
2022-07-29T01:42:39.989Z,12.60
2022-07-29T01:45:13.311Z,12.60
2022-07-29T01:48:03.075Z,12.50
2022-07-29T01:50:35.400Z,12.50
2022-07-29T01:53:05.797Z,12.50
2022-07-29T01:55:37.387Z,12.60
2022-07-29T01:58:06.866Z,12.60
2022-07-29T02:00:35.082Z,12.70
2022-07-29T02:03:06.441Z,12.70
2022-07-29T02:05:35.213Z,12.70
2022-07-29T02:08:05.091Z,12.80
2022-07-29T02:10:35.283Z,12.80
2022-07-29T02:13:04.527Z,12.90
2022-07-29T02:15:33.811Z,12.90
2022-07-29T02:18:08.734Z,13.00
2022-07-29T02:20:37.082Z,13.00
2022-07-29T02:23:06.679Z,12.90
2022-07-29T02:25:37.554Z,12.90
2022-07-29T02:28:09.254Z,12.90
2022-07-29T02:30:42.618Z,12.80
2022-07-29T02:33:13.075Z,12.70
2022-07-29T02:35:41.758Z,12.60
2022-07-29T02:38:28.862Z,12.60
2022-07-29T02:40:56.809Z,12.60
2022-07-29T02:43:23.991Z,12.60
2022-07-29T02:45:53.926Z,12.60
2022-07-29T02:48:26.779Z,12.70
2022-07-29T02:51:02.350Z,12.80
2022-07-29T02:53:34.141Z,12.90
2022-07-29T02:56:11.527Z,13.00
2022-07-29T02:58:53.350Z,13.00
2022-07-29T03:01:24.011Z,13.10
2022-07-29T03:03:54.782Z,13.10
2022-07-29T03:06:28.286Z,13.10
2022-07-29T03:09:12.869Z,13.20
2022-07-29T03:11:49.301Z,13.30
2022-07-29T03:14:21.525Z,13.40
2022-07-29T03:16:49.280Z,13.50
2022-07-29T03:19:16.439Z,13.60
2022-07-29T03:21:43.141Z,13.70
2022-07-29T03:24:12.832Z,13.70
2022-07-29T03:26:39.644Z,13.80
2022-07-29T03:29:06.306Z,13.80
2022-07-29T03:31:33.794Z,13.90
2022-07-29T03:34:00.980Z,13.90
2022-07-29T03:36:27.764Z,13.90
2022-07-29T03:38:55.503Z,13.80
2022-07-29T03:41:24.671Z,13.80
2022-07-29T03:43:53.986Z,13.80
2022-07-29T03:46:23.434Z,13.80
2022-07-29T03:48:53.614Z,13.90
2022-07-29T03:51:34.121Z,14.00
2022-07-29T03:54:07.672Z,14.10
2022-07-29T03:56:40.986Z,14.10
2022-07-29T03:59:08.531Z,14.20
2022-07-29T04:01:36.301Z,14.20
2022-07-29T04:04:04.165Z,14.30
2022-07-29T04:06:42.055Z,14.20
2022-07-29T04:09:09.890Z,14.20
2022-07-29T04:12:02.433Z,14.20
2022-07-29T04:14:25.674Z,14.10
2022-07-29T04:16:52.381Z,14.10
2022-07-29T04:19:18.984Z,14.00
2022-07-29T04:21:46.213Z,13.90
2022-07-29T04:24:13.224Z,14.00
2022-07-29T04:26:40.054Z,14.00
2022-07-29T04:29:06.654Z,14.00
2022-07-29T04:31:33.385Z,14.10
2022-07-29T04:34:00.143Z,14.00
2022-07-29T04:36:28.570Z,14.10
2022-07-29T04:38:56.490Z,14.10
2022-07-29T04:41:23.389Z,14.20
2022-07-29T04:43:57.921Z,14.30
2022-07-29T04:46:26.663Z,14.40
2022-07-29T04:48:53.387Z,14.50
2022-07-29T04:51:20.078Z,14.70
2022-07-29T04:53:46.711Z,14.90
2022-07-29T04:56:13.416Z,15.10
2022-07-29T04:58:40.537Z,15.30
2022-07-29T05:01:07.224Z,15.50
2022-07-29T05:03:33.865Z,15.80
2022-07-29T05:06:00.524Z,16.00
2022-07-29T05:08:27.156Z,16.30
2022-07-29T05:10:53.903Z,16.50
2022-07-29T05:13:20.594Z,16.70
2022-07-29T05:15:47.349Z,16.80
2022-07-29T05:18:15.016Z,16.90
2022-07-29T05:20:41.904Z,17.00
2022-07-29T05:23:08.725Z,16.90
2022-07-29T05:25:44.118Z,17.00
2022-07-29T05:28:12.347Z,17.00
2022-07-29T05:30:39.325Z,16.90
2022-07-29T05:33:06.078Z,16.90
2022-07-29T05:35:32.905Z,16.80
2022-07-29T05:37:59.582Z,16.80
2022-07-29T05:40:26.238Z,16.90
2022-07-29T05:42:52.913Z,17.00
2022-07-29T05:45:19.624Z,17.00
2022-07-29T05:47:46.525Z,17.10
2022-07-29T05:50:13.437Z,17.40
2022-07-29T05:52:40.332Z,17.50
2022-07-29T05:55:07.412Z,17.60
2022-07-29T05:57:34.254Z,17.80
2022-07-29T06:00:01.031Z,18.10
2022-07-29T06:02:27.855Z,18.30
2022-07-29T06:04:54.766Z,18.30
2022-07-29T06:07:21.814Z,18.60
2022-07-29T06:09:48.616Z,18.90
2022-07-29T06:12:15.381Z,19.10
2022-07-29T06:14:42.085Z,19.50
2022-07-29T06:17:08.842Z,20.20
2022-07-29T06:19:37.144Z,20.40
2022-07-29T06:22:04.715Z,20.70
2022-07-29T06:24:31.696Z,21.30
2022-07-29T06:26:58.529Z,22.30
2022-07-29T06:29:25.247Z,23.20
2022-07-29T06:31:52.106Z,23.70
2022-07-29T06:34:19.232Z,24.80
2022-07-29T06:36:47.584Z,24.90
2022-07-29T06:39:15.478Z,24.80
2022-07-29T06:41:42.434Z,25.00
2022-07-29T06:44:12.061Z,25.30
2022-07-29T06:46:38.825Z,24.80
2022-07-29T06:49:05.791Z,24.40
2022-07-29T06:51:32.723Z,24.20
2022-07-29T06:54:02.842Z,24.10
2022-07-29T06:56:38.598Z,23.80
2022-07-29T06:59:07.431Z,23.20
2022-07-29T07:01:34.132Z,22.70
2022-07-29T07:04:00.829Z,22.40
2022-07-29T07:06:28.738Z,22.10
2022-07-29T07:08:55.529Z,21.90
2022-07-29T07:11:22.514Z,21.80
2022-07-29T07:13:49.269Z,21.70
2022-07-29T07:16:16.249Z,21.40
2022-07-29T07:18:43.070Z,20.90
2022-07-29T07:21:09.808Z,20.60
2022-07-29T07:23:36.502Z,20.40
2022-07-29T07:26:03.998Z,20.80
2022-07-29T07:28:30.704Z,21.40
2022-07-29T07:30:57.399Z,22.20
2022-07-29T07:33:24.221Z,22.70
2022-07-29T07:35:50.939Z,23.10
2022-07-29T07:38:17.635Z,23.60
2022-07-29T07:40:44.335Z,23.90
2022-07-29T07:43:10.949Z,24.70
2022-07-29T07:45:38.343Z,25.60
2022-07-29T07:48:06.093Z,25.80
2022-07-29T07:50:32.822Z,25.80
2022-07-29T07:52:59.742Z,25.80
2022-07-29T07:55:27.196Z,25.90
2022-07-29T07:57:57.302Z,26.10
2022-07-29T08:00:24.291Z,26.60
2022-07-29T08:02:51.730Z,28.00
2022-07-29T08:05:19.069Z,28.90
2022-07-29T08:07:47.746Z,29.00
2022-07-29T08:10:16.074Z,29.60
2022-07-29T08:12:44.450Z,31.10
2022-07-29T08:15:11.386Z,32.00
2022-07-29T08:17:38.022Z,32.40
2022-07-29T08:20:05.262Z,32.30
2022-07-29T08:22:32.056Z,31.40
2022-07-29T08:24:58.750Z,30.60
2022-07-29T08:27:43.292Z,30.00
2022-07-29T08:30:11.551Z,29.20
2022-07-29T08:32:55.013Z,28.10
2022-07-29T08:35:24.141Z,27.60
2022-07-29T08:37:51.469Z,27.40
2022-07-29T08:40:18.412Z,27.30
2022-07-29T08:42:45.357Z,27.40
2022-07-29T08:45:12.973Z,27.60
2022-07-29T08:47:43.210Z,28.90
2022-07-29T08:50:10.697Z,30.00
2022-07-29T08:52:39.661Z,29.50
2022-07-29T08:55:08.459Z,28.80
2022-07-29T08:57:37.264Z,28.30
2022-07-29T09:00:11.568Z,28.30
2022-07-29T09:02:45.270Z,28.00
2022-07-29T09:05:13.991Z,27.80
2022-07-29T09:07:44.062Z,27.20
2022-07-29T09:10:11.180Z,26.90
2022-07-29T09:12:38.426Z,26.40
2022-07-29T09:15:05.798Z,26.20
2022-07-29T09:17:49.565Z,26.00
2022-07-29T09:20:23.160Z,25.90
2022-07-29T09:22:51.746Z,26.20
2022-07-29T09:25:38.707Z,26.60
2022-07-29T09:28:10.272Z,27.20
2022-07-29T09:30:51.113Z,27.40
2022-07-29T09:33:17.818Z,27.60
2022-07-29T09:35:56.538Z,27.70
2022-07-29T09:38:24.471Z,27.60
2022-07-29T09:41:05.907Z,27.90
2022-07-29T09:43:33.957Z,27.90
2022-07-29T09:46:13.601Z,27.70
2022-07-29T09:48:40.679Z,27.20
2022-07-29T09:51:26.868Z,27.30
2022-07-29T09:54:24.277Z,27.70
2022-07-29T09:56:51.435Z,27.40
2022-07-29T09:59:18.260Z,27.20
2022-07-29T10:01:45.024Z,27.60
2022-07-29T10:04:11.708Z,27.90
2022-07-29T10:07:03.850Z,28.70
2022-07-29T10:09:31.859Z,29.00
2022-07-29T10:12:09.022Z,28.70
2022-07-29T10:14:36.697Z,28.80
2022-07-29T10:17:05.045Z,29.00
2022-07-29T10:19:33.679Z,29.30
2022-07-29T10:22:01.847Z,30.50
2022-07-29T10:24:30.215Z,29.70
2022-07-29T10:26:58.884Z,29.50
2022-07-29T10:29:26.791Z,29.80
2022-07-29T10:32:12.096Z,29.70
2022-07-29T10:35:09.499Z,29.70
2022-07-29T10:37:55.042Z,29.60
2022-07-29T10:41:09.732Z,29.10
2022-07-29T10:43:42.310Z,29.30
2022-07-29T10:46:11.492Z,29.20
2022-07-29T10:49:15.308Z,29.50
2022-07-29T10:51:52.432Z,30.40
2022-07-29T10:54:20.217Z,30.40
2022-07-29T10:56:48.562Z,30.40
2022-07-29T10:59:21.511Z,30.90
2022-07-29T11:01:53.533Z,31.50
2022-07-29T11:04:45.845Z,31.50
2022-07-29T11:07:15.192Z,31.30
2022-07-29T11:09:42.074Z,31.70
2022-07-29T11:15:25.272Z,31.80
2022-07-29T11:17:59.683Z,30.80
2022-07-29T11:20:43.579Z,30.40
2022-07-29T11:23:33.413Z,30.20
2022-07-29T11:26:14.490Z,30.10
2022-07-29T11:28:51.152Z,30.20
2022-07-29T11:31:44.405Z,30.40
2022-07-29T11:34:30.598Z,30.60
2022-07-29T11:37:13.480Z,30.80
2022-07-29T11:39:43.025Z,30.70
2022-07-29T11:42:32.157Z,30.90
2022-07-29T11:45:44.361Z,30.90
2022-07-29T11:48:27.639Z,31.10
2022-07-29T11:50:48.934Z,31.60
2022-07-29T11:53:17.027Z,31.90
2022-07-29T11:55:50.824Z,31.90
2022-07-29T11:58:25.101Z,31.60
2022-07-29T12:00:53.234Z,31.30
2022-07-29T12:03:33.562Z,31.10
2022-07-29T12:06:04.766Z,31.30
2022-07-29T12:08:41.760Z,31.40
2022-07-29T12:11:17.583Z,31.90
2022-07-29T12:13:47.281Z,32.00
2022-07-29T12:16:16.135Z,31.90
2022-07-29T12:19:10.686Z,31.70
2022-07-29T12:21:56.128Z,31.70
2022-07-29T12:24:26.517Z,31.70
2022-07-29T12:26:59.542Z,31.50
2022-07-29T12:29:33.860Z,31.60
2022-07-29T12:32:03.724Z,32.00
2022-07-29T12:34:31.038Z,32.50
2022-07-29T12:36:57.872Z,32.20
2022-07-29T12:39:27.425Z,32.10
2022-07-29T12:42:03.878Z,32.20
2022-07-29T12:44:48.727Z,31.70
2022-07-29T12:47:16.317Z,31.10
2022-07-29T12:49:43.174Z,30.60
2022-07-29T12:52:27.297Z,30.60
2022-07-29T12:54:53.987Z,30.80
2022-07-29T12:57:20.702Z,30.30
2022-07-29T13:00:00.388Z,30.10
2022-07-29T13:02:29.762Z,29.80
2022-07-29T13:05:00.906Z,29.50
2022-07-29T13:07:55.483Z,29.50
2022-07-29T13:10:24.196Z,29.50
2022-07-29T13:13:11.090Z,29.20
2022-07-29T13:15:40.672Z,29.00
2022-07-29T13:18:34.895Z,29.20
2022-07-29T13:21:18.816Z,29.30
2022-07-29T13:23:45.884Z,29.10
2022-07-29T13:26:13.198Z,29.10
2022-07-29T13:28:39.944Z,29.10
2022-07-29T13:31:06.702Z,29.30
2022-07-29T13:33:33.517Z,29.30
2022-07-29T13:36:00.159Z,29.30
2022-07-29T13:38:31.338Z,29.50
2022-07-29T13:40:58.750Z,29.70
2022-07-29T13:43:25.541Z,29.50
2022-07-29T13:45:52.952Z,29.70
2022-07-29T13:48:19.643Z,29.80
2022-07-29T13:50:47.530Z,30.10
2022-07-29T13:53:17.818Z,30.30
2022-07-29T13:55:45.155Z,30.10
2022-07-29T13:58:11.887Z,29.80
2022-07-29T14:00:38.602Z,29.80
2022-07-29T14:03:05.322Z,30.00
2022-07-29T14:05:32.025Z,29.90
2022-07-29T14:07:58.718Z,29.70
2022-07-29T14:10:25.475Z,29.60
2022-07-29T14:12:52.130Z,29.60
2022-07-29T14:15:18.814Z,29.50
2022-07-29T14:17:45.496Z,29.40
2022-07-29T14:20:12.222Z,29.40
2022-07-29T14:22:42.402Z,29.20
2022-07-29T14:25:14.975Z,29.00
2022-07-29T14:27:43.920Z,28.80
2022-07-29T14:30:11.248Z,29.00
2022-07-29T14:32:37.887Z,29.00
2022-07-29T14:35:05.673Z,28.90
2022-07-29T14:37:39.957Z,28.70
2022-07-29T14:40:08.410Z,28.70
2022-07-29T14:42:35.202Z,28.60
2022-07-29T14:45:01.881Z,28.70
2022-07-29T14:47:28.645Z,28.80
2022-07-29T14:49:55.563Z,28.80
2022-07-29T14:52:22.225Z,28.60
2022-07-29T14:54:48.920Z,28.70
2022-07-29T14:57:15.824Z,28.80
2022-07-29T14:59:42.492Z,29.00
2022-07-29T15:02:09.403Z,29.20
2022-07-29T15:04:36.113Z,29.40
2022-07-29T15:07:02.946Z,29.50
2022-07-29T15:09:29.635Z,29.60
2022-07-29T15:11:56.672Z,29.70
2022-07-29T15:14:23.650Z,29.50
2022-07-29T15:16:50.451Z,29.20
2022-07-29T15:19:20.002Z,29.30
2022-07-29T15:21:59.281Z,29.40
2022-07-29T15:24:26.661Z,29.70
2022-07-29T15:26:53.398Z,29.80
2022-07-29T15:29:20.222Z,29.70
2022-07-29T15:31:46.983Z,29.60
2022-07-29T15:34:13.798Z,29.40
2022-07-29T15:36:55.770Z,29.50
2022-07-29T15:39:23.261Z,29.70
2022-07-29T15:41:50.774Z,29.60
2022-07-29T15:44:17.855Z,29.30
2022-07-29T15:47:03.215Z,28.90
2022-07-29T15:49:48.594Z,28.80
2022-07-29T15:52:18.997Z,28.60
2022-07-29T15:54:51.665Z,28.50
2022-07-29T15:57:18.383Z,28.30
2022-07-29T15:59:45.087Z,27.90
2022-07-29T16:02:11.946Z,27.90
2022-07-29T16:04:38.781Z,27.80
2022-07-29T16:07:05.697Z,27.80
2022-07-29T16:09:32.428Z,27.80
2022-07-29T16:11:59.111Z,27.70
2022-07-29T16:14:28.210Z,27.50
2022-07-29T16:16:55.810Z,27.50
2022-07-29T16:19:22.985Z,27.30
2022-07-29T16:21:49.680Z,27.20
2022-07-29T16:24:16.393Z,27.20
2022-07-29T16:26:43.257Z,27.10
2022-07-29T16:29:09.943Z,27.20
2022-07-29T16:31:36.715Z,27.30
2022-07-29T16:34:03.521Z,27.60
2022-07-29T16:36:30.286Z,27.70
2022-07-29T16:38:56.984Z,27.70
2022-07-29T16:41:23.753Z,27.60
2022-07-29T16:43:50.447Z,27.60
2022-07-29T16:46:18.810Z,27.50
2022-07-29T16:48:45.861Z,27.40
2022-07-29T16:51:14.544Z,27.20
2022-07-29T16:53:42.078Z,27.00
2022-07-29T16:56:12.749Z,26.90
2022-07-29T16:58:43.452Z,26.80
2022-07-29T17:01:11.515Z,26.80
2022-07-29T17:04:00.175Z,26.80
2022-07-29T17:06:28.608Z,26.70
2022-07-29T17:08:56.559Z,26.70
2022-07-29T17:11:51.882Z,26.70
2022-07-29T17:14:10.449Z,26.60
2022-07-29T17:16:37.235Z,26.60
2022-07-29T17:19:04.086Z,26.50
2022-07-29T17:21:30.730Z,26.50
2022-07-29T17:23:59.249Z,26.50
2022-07-29T17:26:27.474Z,26.30
2022-07-29T17:28:55.324Z,26.30
2022-07-29T17:31:22.552Z,26.20
2022-07-29T17:33:49.268Z,26.10
2022-07-29T17:36:24.880Z,26.10
2022-07-29T17:38:53.368Z,26.10
2022-07-29T17:41:21.530Z,26.00
2022-07-29T17:43:49.135Z,25.90
2022-07-29T17:46:16.596Z,25.90
2022-07-29T17:48:43.887Z,25.80
2022-07-29T17:51:10.973Z,25.80
2022-07-29T17:53:38.144Z,25.70
2022-07-29T17:56:05.266Z,25.60
2022-07-29T17:58:32.427Z,25.60
2022-07-29T18:00:59.300Z,25.60
2022-07-29T18:03:26.362Z,25.50
2022-07-29T18:05:53.580Z,25.50
2022-07-29T18:08:20.323Z,25.40
2022-07-29T18:10:47.501Z,25.30
2022-07-29T18:13:14.438Z,25.30
2022-07-29T18:15:41.294Z,25.30
2022-07-29T18:18:08.361Z,25.30
2022-07-29T18:20:35.067Z,25.20
2022-07-29T18:23:02.007Z,25.20
2022-07-29T18:25:28.947Z,25.20
2022-07-29T18:27:59.994Z,25.10
2022-07-29T18:30:27.904Z,25.00
2022-07-29T18:33:19.716Z,25.00
2022-07-29T18:35:41.247Z,24.90
2022-07-29T18:38:07.947Z,24.80
2022-07-29T18:40:35.312Z,24.70
2022-07-29T18:43:02.038Z,24.70
2022-07-29T18:45:29.031Z,24.70
2022-07-29T18:47:56.642Z,24.70
2022-07-29T18:50:28.875Z,24.60
2022-07-29T18:52:58.465Z,24.60
2022-07-29T18:55:26.157Z,24.60
2022-07-29T18:57:55.455Z,24.60
2022-07-29T19:00:26.564Z,24.60
2022-07-29T19:02:53.713Z,24.60
2022-07-29T19:05:21.344Z,24.50
2022-07-29T19:07:48.098Z,24.50
2022-07-29T19:10:14.901Z,24.40
2022-07-29T19:12:42.334Z,24.40
2022-07-29T19:15:10.582Z,24.30
2022-07-29T19:17:38.597Z,24.20
2022-07-29T19:20:07.432Z,24.20
2022-07-29T19:22:34.447Z,24.10
2022-07-29T19:25:01.111Z,24.10
2022-07-29T19:27:27.872Z,24.10
2022-07-29T19:29:58.775Z,24.00
2022-07-29T19:32:26.347Z,23.90
2022-07-29T19:35:14.275Z,23.90
2022-07-29T19:37:40.913Z,23.80
2022-07-29T19:40:07.910Z,23.70
2022-07-29T19:42:34.539Z,23.70
2022-07-29T19:45:01.242Z,23.70
2022-07-29T19:47:27.921Z,23.70
2022-07-29T19:49:54.600Z,23.60
2022-07-29T19:52:21.278Z,23.60
2022-07-29T19:54:48.107Z,23.60
2022-07-29T19:57:14.797Z,23.50
2022-07-29T19:59:41.450Z,23.50
2022-07-29T20:02:11.021Z,23.50
2022-07-29T20:04:38.573Z,23.50
2022-07-29T20:07:06.254Z,23.40
2022-07-29T20:09:32.917Z,23.40
2022-07-29T20:11:59.701Z,23.30
2022-07-29T20:14:26.480Z,23.30
2022-07-29T20:16:54.333Z,23.30
2022-07-29T20:19:21.170Z,23.20
2022-07-29T20:21:47.912Z,23.20
2022-07-29T20:24:14.604Z,23.20
2022-07-29T20:26:41.283Z,23.20
2022-07-29T20:29:07.949Z,23.20
2022-07-29T20:31:34.907Z,23.10
2022-07-29T20:34:01.940Z,23.20
2022-07-29T20:36:28.947Z,23.20
2022-07-29T20:38:56.375Z,23.20
2022-07-29T20:41:23.317Z,23.20
2022-07-29T20:43:50.052Z,23.10
2022-07-29T20:46:18.088Z,23.10
2022-07-29T20:48:46.904Z,23.00
2022-07-29T20:51:14.607Z,23.10
2022-07-29T20:53:41.785Z,23.10
2022-07-29T20:56:08.618Z,23.00
2022-07-29T20:58:36.350Z,23.00
2022-07-29T21:01:03.834Z,23.00
2022-07-29T21:03:30.606Z,23.00
2022-07-29T21:05:57.360Z,22.90
2022-07-29T21:08:24.239Z,22.90
2022-07-29T21:10:50.971Z,22.80
2022-07-29T21:13:18.588Z,22.90
2022-07-29T21:15:49.136Z,22.80
2022-07-29T21:18:27.386Z,22.80
2022-07-29T21:20:55.075Z,22.70
2022-07-29T21:23:21.759Z,22.80
2022-07-29T21:25:48.434Z,22.80
2022-07-29T21:28:27.077Z,22.80
2022-07-29T21:30:55.251Z,22.80
2022-07-29T21:33:22.073Z,22.70
2022-07-29T21:36:26.595Z,22.70
2022-07-29T21:38:36.057Z,22.70
2022-07-29T21:41:03.925Z,22.70
2022-07-29T21:43:30.641Z,22.60
2022-07-29T21:45:58.571Z,22.60
2022-07-29T21:48:26.871Z,22.70
2022-07-29T21:50:54.091Z,22.60
2022-07-29T21:53:22.891Z,22.60
2022-07-29T21:55:56.160Z,22.60
2022-07-29T21:58:23.670Z,22.60
2022-07-29T22:00:50.731Z,22.60
2022-07-29T22:03:17.656Z,22.60
2022-07-29T22:05:44.969Z,22.50
2022-07-29T22:08:11.685Z,22.50
2022-07-29T22:10:38.408Z,22.50
2022-07-29T22:13:05.144Z,22.50
2022-07-29T22:15:32.229Z,22.40
2022-07-29T22:17:59.417Z,22.30
2022-07-29T22:20:26.737Z,22.30
2022-07-29T22:22:53.726Z,22.30
2022-07-29T22:25:20.697Z,22.30
2022-07-29T22:27:47.405Z,22.40
2022-07-29T22:30:14.772Z,22.40
2022-07-29T22:32:41.928Z,22.40
2022-07-29T22:35:09.139Z,22.40
2022-07-29T22:37:35.888Z,22.40
2022-07-29T22:40:03.597Z,22.30
2022-07-29T22:42:30.384Z,22.40
2022-07-29T22:44:57.340Z,22.40
2022-07-29T22:47:46.537Z,22.40
2022-07-29T22:50:10.654Z,22.40
2022-07-29T22:52:37.306Z,22.40
2022-07-29T22:55:05.570Z,22.40
2022-07-29T22:57:32.443Z,22.40
2022-07-29T23:00:01.617Z,22.40
2022-07-29T23:02:29.116Z,22.40
2022-07-29T23:04:55.831Z,22.40
2022-07-29T23:07:23.204Z,22.40
2022-07-29T23:09:50.153Z,22.40
2022-07-29T23:12:17.505Z,22.30
2022-07-29T23:14:44.142Z,22.30
2022-07-29T23:17:10.915Z,22.30
2022-07-29T23:19:37.609Z,22.30
2022-07-29T23:22:05.603Z,22.30
2022-07-29T23:24:32.320Z,22.30
2022-07-29T23:26:59.344Z,22.20
2022-07-29T23:29:26.567Z,22.20
2022-07-29T23:31:53.206Z,22.20
2022-07-29T23:34:19.928Z,22.20
2022-07-29T23:36:46.681Z,22.10
2022-07-29T23:39:13.776Z,22.10
2022-07-29T23:41:40.958Z,22.00
2022-07-29T23:44:07.724Z,22.00
2022-07-29T23:46:34.525Z,21.90
2022-07-29T23:49:01.395Z,21.90
2022-07-29T23:51:29.106Z,21.80
2022-07-29T23:53:56.423Z,21.80
2022-07-29T23:56:23.495Z,21.80
2022-07-29T23:58:50.338Z,21.70
